createdAt,value
2018-12-15T00:02:06.517Z,51.07
2018-12-15T00:04:35.548Z,54.53
2018-12-15T00:07:04.736Z,53.03
2018-12-15T00:09:33.676Z,55.90
2018-12-15T00:12:02.932Z,58.10
2018-12-15T00:14:31.896Z,58.73
2018-12-15T00:17:05.745Z,58.73
2018-12-15T00:19:31.884Z,57.20
2018-12-15T00:22:00.940Z,56.27
2018-12-15T00:24:29.934Z,53.70
2018-12-15T00:26:58.988Z,52.00
2018-12-15T00:29:27.916Z,54.00
2018-12-15T00:31:57.053Z,52.73
2018-12-15T00:34:25.857Z,51.93
2018-12-15T00:36:54.742Z,53.30
2018-12-15T00:39:23.619Z,52.47
2018-12-15T00:41:52.624Z,52.93
2018-12-15T00:44:21.501Z,50.90
2018-12-15T00:46:50.547Z,51.77
2018-12-15T00:49:19.170Z,52.13
2018-12-15T00:51:48.007Z,51.80
2018-12-15T00:54:16.976Z,54.17
2018-12-15T00:56:45.968Z,53.50
2018-12-15T00:59:14.843Z,52.70
2018-12-15T01:01:43.766Z,52.20
2018-12-15T01:04:12.489Z,52.93
2018-12-15T01:06:41.175Z,52.50
2018-12-15T01:09:10.092Z,51.00
2018-12-15T01:11:38.995Z,55.33
2018-12-15T01:14:07.998Z,51.13
2018-12-15T01:16:36.948Z,51.03
2018-12-15T01:19:06.007Z,53.00
2018-12-15T01:21:34.731Z,52.57
2018-12-15T01:24:03.493Z,51.93
2018-12-15T01:26:32.540Z,52.93
2018-12-15T01:29:01.414Z,53.43
2018-12-15T01:31:30.416Z,52.33
2018-12-15T01:33:59.429Z,52.63
2018-12-15T01:36:28.427Z,53.70
2018-12-15T01:38:57.407Z,52.97
2018-12-15T01:41:26.193Z,54.33
2018-12-15T01:43:55.144Z,51.07
2018-12-15T01:46:24.529Z,51.80
2018-12-15T01:48:53.579Z,52.67
2018-12-15T01:51:22.339Z,52.60
2018-12-15T01:53:51.344Z,50.73
2018-12-15T01:56:20.179Z,52.87
2018-12-15T01:58:49.240Z,52.40
2018-12-15T02:01:18.068Z,52.83
2018-12-15T02:03:47.054Z,50.70
2018-12-15T02:06:15.756Z,50.10
2018-12-15T02:08:44.683Z,51.67
2018-12-15T02:11:13.684Z,50.17
2018-12-15T02:13:42.716Z,51.37
2018-12-15T02:16:11.372Z,53.27
2018-12-15T02:18:40.276Z,53.27
2018-12-15T02:21:09.064Z,51.53
2018-12-15T02:23:38.139Z,50.17
2018-12-15T02:26:07.217Z,52.80
2018-12-15T02:28:36.024Z,53.47
2018-12-15T02:31:05.061Z,52.23
2018-12-15T02:33:34.007Z,53.13
2018-12-15T02:36:03.016Z,51.23
2018-12-15T02:38:31.977Z,52.03
2018-12-15T02:41:01.025Z,53.93
2018-12-15T02:43:30.016Z,53.27
2018-12-15T02:45:59.123Z,51.07
2018-12-15T02:48:27.971Z,51.03
2018-12-15T02:50:56.942Z,51.77
2018-12-15T02:53:25.738Z,51.60
2018-12-15T02:55:54.886Z,52.50
2018-12-15T02:58:23.955Z,51.77
2018-12-15T03:00:52.976Z,53.37
2018-12-15T03:03:21.798Z,52.27
2018-12-15T03:05:50.802Z,52.53
2018-12-15T03:08:19.720Z,51.43
2018-12-15T03:10:48.571Z,50.83
2018-12-15T03:13:17.496Z,54.07
2018-12-15T03:15:46.428Z,55.97
2018-12-15T03:18:15.414Z,55.53
2018-12-15T03:20:53.975Z,54.10
2018-12-15T03:23:22.900Z,55.87
2018-12-15T03:25:51.941Z,55.17
2018-12-15T03:28:20.922Z,55.53
2018-12-15T03:30:49.907Z,54.67
2018-12-15T03:33:18.919Z,52.27
2018-12-15T03:35:47.915Z,53.17
2018-12-15T03:38:16.798Z,48.63
2018-12-15T03:40:45.459Z,52.63
2018-12-15T03:43:14.456Z,51.37
2018-12-15T03:45:43.310Z,50.93
2018-12-15T03:48:12.252Z,50.37
2018-12-15T03:50:41.308Z,49.57
2018-12-15T03:53:09.937Z,48.63
2018-12-15T03:55:38.681Z,49.03
2018-12-15T03:58:07.633Z,49.37
2018-12-15T04:00:36.663Z,47.20
2018-12-15T04:03:05.634Z,47.57
2018-12-15T04:05:34.629Z,47.47
2018-12-15T04:08:03.805Z,47.03
2018-12-15T04:10:32.545Z,47.77
2018-12-15T04:13:01.226Z,45.30
2018-12-15T04:15:30.140Z,48.80
2018-12-15T04:18:03.711Z,46.50
2018-12-15T04:20:29.716Z,46.00
2018-12-15T04:22:58.763Z,46.37
2018-12-15T04:25:27.778Z,45.73
2018-12-15T04:27:56.808Z,46.70
2018-12-15T04:30:25.529Z,46.17
2018-12-15T04:32:54.176Z,47.43
2018-12-15T04:35:23.232Z,49.00
2018-12-15T04:37:52.220Z,47.17
2018-12-15T04:40:21.615Z,50.50
2018-12-15T04:42:50.492Z,54.53
2018-12-15T04:45:19.401Z,54.00
2018-12-15T04:47:48.136Z,55.27
2018-12-15T04:50:17.139Z,56.80
2018-12-15T04:52:45.983Z,55.43
2018-12-15T04:55:14.952Z,53.67
2018-12-15T04:57:43.871Z,54.33
2018-12-15T05:00:12.829Z,50.60
2018-12-15T05:02:44.052Z,54.50
2018-12-15T05:05:12.957Z,54.03
2018-12-15T05:07:42.020Z,55.73
2018-12-15T05:10:10.881Z,56.07
2018-12-15T05:12:39.603Z,56.47
2018-12-15T05:15:08.749Z,57.57
2018-12-15T05:17:37.941Z,57.00
2018-12-15T05:20:07.454Z,57.20
2018-12-15T05:22:36.802Z,57.93
2018-12-15T05:25:06.816Z,59.23
2018-12-15T05:27:35.480Z,68.10
2018-12-15T05:30:05.075Z,65.80
2018-12-15T05:32:33.750Z,61.77
2018-12-15T05:35:02.525Z,57.20
2018-12-15T05:37:31.516Z,59.57
2018-12-15T05:40:00.400Z,59.13
2018-12-15T05:42:29.458Z,56.30
2018-12-15T05:44:58.590Z,54.67
2018-12-15T05:47:27.577Z,57.73
2018-12-15T05:49:56.627Z,58.87
2018-12-15T05:52:25.352Z,55.30
2018-12-15T05:54:54.337Z,54.90
2018-12-15T05:57:23.284Z,55.37
2018-12-15T05:59:52.295Z,55.30
2018-12-15T06:02:21.667Z,62.97
2018-12-15T06:04:51.332Z,65.10
2018-12-15T06:07:20.248Z,67.20
2018-12-15T06:09:48.899Z,61.73
2018-12-15T06:12:17.997Z,58.43
2018-12-15T06:14:46.914Z,69.40
2018-12-15T06:17:15.973Z,72.67
2018-12-15T06:19:44.926Z,83.83
2018-12-15T06:22:13.991Z,76.20
2018-12-15T06:24:42.962Z,79.03
2018-12-15T06:27:11.699Z,72.67
2018-12-15T06:29:40.822Z,81.73
2018-12-15T06:32:09.744Z,88.77
2018-12-15T06:34:38.731Z,92.87
2018-12-15T06:37:07.746Z,87.50
2018-12-15T06:39:36.779Z,87.63
2018-12-15T06:42:05.968Z,85.37
2018-12-15T06:44:35.063Z,74.97
2018-12-15T06:47:04.151Z,82.83
2018-12-15T06:49:33.345Z,75.90
2018-12-15T06:52:02.439Z,66.47
2018-12-15T06:54:31.501Z,66.73
2018-12-15T06:57:00.441Z,61.83
2018-12-15T06:59:29.297Z,58.60
2018-12-15T07:01:58.284Z,64.07
2018-12-15T07:04:26.886Z,64.27
2018-12-15T07:06:55.876Z,67.67
2018-12-15T07:09:24.831Z,70.73
2018-12-15T07:11:53.887Z,70.97
2018-12-15T07:14:22.936Z,72.07
2018-12-15T07:16:51.963Z,72.77
2018-12-15T07:19:20.617Z,73.43
2018-12-15T07:21:49.574Z,81.27
2018-12-15T07:24:18.482Z,108.03
2018-12-15T07:26:47.138Z,120.20
2018-12-15T07:29:16.215Z,77.77
2018-12-15T07:31:44.826Z,64.83
2018-12-15T07:34:13.949Z,50.93
2018-12-15T07:36:42.661Z,46.77
2018-12-15T07:39:11.633Z,46.87
2018-12-15T07:41:40.379Z,45.90
2018-12-15T07:44:09.336Z,43.83
2018-12-15T07:46:38.032Z,41.27
2018-12-15T07:49:07.011Z,39.27
2018-12-15T07:51:36.018Z,51.10
2018-12-15T07:54:04.899Z,57.30
2018-12-15T07:56:33.576Z,58.90
2018-12-15T07:59:02.668Z,59.07
2018-12-15T08:01:31.625Z,67.70
2018-12-15T08:04:00.624Z,66.77
2018-12-15T08:06:29.648Z,70.00
2018-12-15T08:08:58.557Z,70.83
2018-12-15T08:11:32.576Z,67.57
2018-12-15T08:14:06.709Z,85.80
2018-12-15T08:16:35.778Z,82.73
2018-12-15T08:19:05.929Z,89.27
2018-12-15T08:21:34.964Z,94.00
2018-12-15T08:24:04.148Z,107.47
2018-12-15T08:26:33.086Z,99.33
2018-12-15T08:29:01.770Z,95.37
2018-12-15T08:31:30.719Z,88.80
2018-12-15T08:33:59.510Z,89.07
2018-12-15T08:36:28.477Z,87.97
2018-12-15T08:38:57.272Z,88.77
2018-12-15T08:41:26.140Z,81.67
2018-12-15T08:43:55.079Z,78.43
2018-12-15T08:46:24.131Z,80.27
2018-12-15T08:48:53.288Z,84.50
2018-12-15T08:51:22.473Z,76.77
2018-12-15T08:53:51.356Z,69.83
2018-12-15T08:56:20.290Z,54.77
2018-12-15T08:58:49.320Z,82.30
2018-12-15T09:01:17.974Z,85.70
2018-12-15T09:03:46.736Z,75.07
2018-12-15T09:06:15.717Z,65.93
2018-12-15T09:08:44.676Z,59.87
2018-12-15T09:11:13.554Z,57.87
2018-12-15T09:13:42.466Z,54.13
2018-12-15T09:16:11.537Z,53.63
2018-12-15T09:18:40.199Z,50.40
2018-12-15T09:21:08.996Z,52.50
2018-12-15T09:23:37.741Z,53.60
2018-12-15T09:26:06.790Z,55.27
2018-12-15T09:28:35.849Z,52.83
2018-12-15T09:31:04.888Z,57.40
2018-12-15T09:33:33.565Z,58.53
2018-12-15T09:36:02.478Z,59.00
2018-12-15T09:38:31.070Z,54.57
2018-12-15T09:40:59.960Z,50.60
2018-12-15T09:43:28.892Z,50.83
2018-12-15T09:45:57.813Z,52.83
2018-12-15T09:48:26.797Z,60.00
2018-12-15T09:50:55.687Z,50.20
2018-12-15T09:53:24.542Z,45.47
2018-12-15T09:55:53.712Z,52.03
2018-12-15T09:58:22.463Z,48.27
2018-12-15T10:00:51.184Z,49.40
2018-12-15T10:03:20.285Z,50.57
2018-12-15T10:05:49.225Z,46.20
2018-12-15T10:08:18.138Z,45.53
2018-12-15T10:10:46.807Z,42.93
2018-12-15T10:13:15.839Z,52.93
2018-12-15T10:15:44.803Z,46.83
2018-12-15T10:18:13.558Z,47.97
2018-12-15T10:20:42.587Z,43.07
2018-12-15T10:23:11.649Z,82.57
2018-12-15T10:25:40.381Z,57.27
2018-12-15T10:28:09.397Z,51.53
2018-12-15T10:30:43.533Z,43.57
2018-12-15T10:33:12.543Z,83.03
2018-12-15T10:35:41.513Z,96.60
2018-12-15T10:38:10.544Z,57.63
2018-12-15T10:40:39.588Z,57.20
2018-12-15T10:43:08.541Z,46.63
2018-12-15T10:45:37.409Z,39.30
2018-12-15T10:48:06.320Z,44.20
2018-12-15T10:50:35.276Z,49.00
2018-12-15T10:53:04.044Z,55.50
2018-12-15T10:55:32.951Z,46.40
2018-12-15T10:58:01.877Z,49.73
2018-12-15T11:00:35.988Z,50.27
2018-12-15T11:03:05.187Z,45.23
2018-12-15T11:05:34.220Z,41.67
2018-12-15T11:08:03.216Z,39.70
2018-12-15T11:10:32.245Z,41.53
2018-12-15T11:13:01.047Z,39.67
2018-12-15T11:15:29.953Z,39.40
2018-12-15T11:17:58.914Z,35.67
2018-12-15T11:20:27.909Z,39.97
2018-12-15T11:22:57.004Z,38.43
2018-12-15T11:25:26.052Z,30.97
2018-12-15T11:27:54.987Z,30.73
2018-12-15T11:30:23.979Z,37.23
2018-12-15T11:32:53.020Z,32.13
2018-12-15T11:35:21.807Z,52.33
2018-12-15T11:37:50.857Z,74.70
2018-12-15T11:40:19.904Z,40.27
2018-12-15T11:42:48.970Z,36.80
2018-12-15T11:45:18.041Z,66.13
2018-12-15T11:47:47.007Z,61.03
2018-12-15T11:50:16.011Z,40.30
2018-12-15T11:52:45.014Z,43.10
2018-12-15T11:55:13.880Z,40.37
2018-12-15T11:57:42.708Z,61.23
2018-12-15T12:00:12.587Z,60.60
2018-12-15T12:02:41.797Z,38.50
2018-12-15T12:05:10.729Z,36.10
2018-12-15T12:07:39.848Z,38.10
2018-12-15T12:10:09.086Z,37.97
2018-12-15T12:12:38.076Z,33.23
2018-12-15T12:15:07.256Z,39.40
2018-12-15T12:17:36.332Z,35.43
2018-12-15T12:20:07.073Z,43.50
2018-12-15T12:22:35.923Z,48.40
2018-12-15T12:25:05.306Z,40.30
2018-12-15T12:27:34.167Z,42.47
2018-12-15T12:30:03.121Z,47.70
2018-12-15T12:32:32.605Z,42.10
2018-12-15T12:35:01.624Z,37.97
2018-12-15T12:37:30.458Z,45.80
2018-12-15T12:39:59.395Z,43.73
2018-12-15T12:42:28.157Z,45.47
2018-12-15T12:44:57.049Z,42.27
2018-12-15T12:47:26.043Z,41.33
2018-12-15T12:49:56.935Z,35.10
2018-12-15T12:52:25.813Z,31.10
2018-12-15T12:54:54.890Z,31.90
2018-12-15T12:57:23.958Z,30.00
2018-12-15T12:59:52.824Z,30.23
2018-12-15T13:02:21.685Z,27.63
2018-12-15T13:04:50.773Z,29.30
2018-12-15T13:07:19.862Z,32.13
2018-12-15T13:09:48.822Z,30.60
2018-12-15T13:12:17.888Z,28.27
2018-12-15T13:14:46.913Z,62.60
2018-12-15T13:17:16.010Z,123.47
2018-12-15T13:19:44.714Z,93.40
2018-12-15T13:22:14.777Z,49.70
2018-12-15T13:24:43.669Z,39.30
2018-12-15T13:27:12.425Z,40.10
2018-12-15T13:29:41.193Z,36.20
2018-12-15T13:32:10.144Z,36.97
2018-12-15T13:34:39.203Z,66.90
2018-12-15T13:37:08.277Z,59.97
2018-12-15T13:39:37.251Z,56.63
2018-12-15T13:42:07.162Z,46.40
2018-12-15T13:44:36.230Z,39.80
2018-12-15T13:47:04.867Z,35.43
2018-12-15T13:49:33.991Z,35.17
2018-12-15T13:52:03.042Z,34.57
2018-12-15T13:54:32.191Z,33.23
2018-12-15T13:57:01.222Z,41.10
2018-12-15T13:59:30.274Z,45.87
2018-12-15T14:01:59.163Z,37.47
2018-12-15T14:04:27.962Z,32.30
2018-12-15T14:06:56.840Z,33.57
2018-12-15T14:09:25.604Z,38.23
2018-12-15T14:11:54.541Z,36.33
2018-12-15T14:14:23.517Z,40.10
2018-12-15T14:16:52.554Z,38.27
2018-12-15T14:19:21.550Z,35.33
2018-12-15T14:21:50.571Z,41.47
2018-12-15T14:24:19.403Z,38.50
2018-12-15T14:26:48.516Z,47.63
2018-12-15T14:29:17.485Z,55.33
2018-12-15T14:31:46.435Z,62.47
2018-12-15T14:34:15.592Z,68.60
2018-12-15T14:36:44.344Z,61.70
2018-12-15T14:39:13.376Z,58.17
2018-12-15T14:41:42.423Z,53.77
2018-12-15T14:44:11.309Z,50.07
2018-12-15T14:46:40.311Z,43.53
2018-12-15T14:49:09.287Z,40.50
2018-12-15T14:51:38.311Z,38.13
2018-12-15T14:54:07.088Z,41.80
2018-12-15T14:56:36.100Z,50.43
2018-12-15T14:59:11.429Z,41.43
2018-12-15T15:01:40.145Z,41.23
2018-12-15T15:04:09.217Z,51.03
2018-12-15T15:06:38.245Z,65.03
2018-12-15T15:09:07.810Z,63.47
2018-12-15T15:11:36.886Z,58.47
2018-12-15T15:14:05.811Z,57.30
2018-12-15T15:16:34.863Z,65.87
2018-12-15T15:19:03.705Z,69.53
2018-12-15T15:21:32.698Z,64.17
2018-12-15T15:24:01.752Z,66.73
2018-12-15T15:26:30.781Z,64.83
2018-12-15T15:28:59.836Z,64.47
2018-12-15T15:31:28.695Z,61.03
2018-12-15T15:33:58.204Z,67.20
2018-12-15T15:36:28.179Z,66.33
2018-12-15T15:38:58.218Z,60.17
2018-12-15T15:41:27.104Z,61.97
2018-12-15T15:43:56.036Z,61.20
2018-12-15T15:46:24.739Z,61.57
2018-12-15T15:48:53.432Z,81.23
2018-12-15T15:51:22.302Z,76.53
2018-12-15T15:53:51.116Z,71.73
2018-12-15T15:56:19.945Z,83.50
2018-12-15T15:58:48.888Z,75.63
2018-12-15T16:01:17.795Z,75.87
2018-12-15T16:03:46.737Z,81.50
2018-12-15T16:06:15.826Z,70.50
2018-12-15T16:08:44.763Z,74.43
2018-12-15T16:11:14.140Z,94.90
2018-12-15T16:13:43.127Z,84.47
2018-12-15T16:16:22.863Z,86.13
2018-12-15T16:18:51.964Z,121.63
2018-12-15T16:21:20.979Z,124.00
2018-12-15T16:23:50.057Z,90.90
2018-12-15T16:26:18.920Z,100.10
2018-12-15T16:28:47.838Z,86.60
2018-12-15T16:31:16.771Z,91.90
2018-12-15T16:33:46.032Z,101.37
2018-12-15T16:36:15.061Z,100.20
2018-12-15T16:38:43.865Z,108.33
2018-12-15T16:41:12.549Z,122.50
2018-12-15T16:43:41.477Z,128.90
2018-12-15T16:46:10.468Z,114.90
2018-12-15T16:48:39.388Z,122.30
2018-12-15T16:51:08.352Z,83.33
2018-12-15T16:53:37.622Z,83.33
2018-12-15T16:56:06.499Z,94.37
2018-12-15T16:58:35.412Z,91.07
2018-12-15T17:01:04.592Z,96.27
2018-12-15T17:03:33.599Z,97.77
2018-12-15T17:06:02.707Z,86.47
2018-12-15T17:08:31.440Z,84.47
2018-12-15T17:11:00.604Z,81.03
2018-12-15T17:13:29.701Z,80.50
2018-12-15T17:15:58.430Z,77.63
2018-12-15T17:18:27.192Z,76.87
2018-12-15T17:20:56.863Z,77.33
2018-12-15T17:23:26.910Z,91.20
2018-12-15T17:25:55.642Z,85.30
2018-12-15T17:28:24.720Z,83.30
2018-12-15T17:30:53.816Z,82.30
2018-12-15T17:33:22.747Z,47.97
2018-12-15T17:35:51.645Z,118.20
2018-12-15T17:38:20.573Z,63.53
2018-12-15T17:40:49.634Z,48.63
2018-12-15T17:43:18.635Z,62.20
2018-12-15T17:45:47.543Z,68.40
2018-12-15T17:48:17.203Z,69.53
2018-12-15T17:50:47.041Z,67.07
2018-12-15T17:53:16.035Z,63.03
2018-12-15T17:55:45.009Z,55.57
2018-12-15T17:58:14.769Z,54.60
2018-12-15T18:00:44.231Z,59.47
2018-12-15T18:03:13.219Z,63.33
2018-12-15T18:05:42.156Z,74.67
2018-12-15T18:08:11.168Z,90.13
2018-12-15T18:10:40.260Z,118.07
2018-12-15T18:13:10.013Z,133.13
2018-12-15T18:15:38.953Z,133.20
2018-12-15T18:18:07.996Z,129.23
2018-12-15T18:20:37.140Z,103.00
2018-12-15T18:23:05.961Z,100.47
2018-12-15T18:25:34.966Z,101.23
2018-12-15T18:28:04.153Z,82.87
2018-12-15T18:30:33.161Z,74.27
2018-12-15T18:33:02.153Z,59.77
2018-12-15T18:35:31.722Z,62.67
2018-12-15T18:38:00.864Z,60.47
2018-12-15T18:40:29.633Z,61.40
2018-12-15T18:42:59.164Z,58.27
2018-12-15T18:45:28.075Z,63.30
2018-12-15T18:47:57.186Z,63.60
2018-12-15T18:50:26.187Z,61.93
2018-12-15T18:52:55.319Z,58.40
2018-12-15T18:55:25.220Z,58.47
2018-12-15T18:57:54.272Z,59.77
2018-12-15T19:00:23.017Z,63.07
2018-12-15T19:02:52.017Z,61.93
2018-12-15T19:05:20.838Z,61.27
2018-12-15T19:07:49.799Z,62.67
2018-12-15T19:10:18.888Z,66.37
2018-12-15T19:12:47.906Z,129.77
2018-12-15T19:15:16.867Z,77.87
2018-12-15T19:17:45.637Z,116.93
2018-12-15T19:20:14.456Z,120.37
2018-12-15T19:22:43.576Z,98.63
2018-12-15T19:25:13.100Z,107.53
2018-12-15T19:27:42.187Z,101.60
2018-12-15T19:30:12.004Z,127.17
2018-12-15T19:32:42.142Z,113.00
2018-12-15T19:35:11.666Z,100.20
2018-12-15T19:37:41.990Z,99.23
2018-12-15T19:40:10.995Z,98.03
2018-12-15T19:42:40.774Z,118.30
2018-12-15T19:45:09.893Z,107.80
2018-12-15T19:47:39.708Z,106.17
2018-12-15T19:50:09.339Z,106.47
2018-12-15T19:52:38.292Z,102.07
2018-12-15T19:55:07.564Z,103.53
2018-12-15T19:57:36.503Z,96.00
2018-12-15T20:00:05.940Z,100.23
2018-12-15T20:02:35.055Z,81.27
2018-12-15T20:05:04.045Z,81.00
2018-12-15T20:07:33.095Z,73.13
2018-12-15T20:10:02.209Z,62.63
2018-12-15T20:12:31.119Z,62.83
2018-12-15T20:15:00.188Z,55.63
2018-12-15T20:17:29.251Z,53.63
2018-12-15T20:19:58.241Z,52.20
2018-12-15T20:22:26.927Z,49.20
2018-12-15T20:24:56.602Z,49.57
2018-12-15T20:27:25.628Z,51.53
2018-12-15T20:29:54.640Z,50.70
2018-12-15T20:32:23.576Z,50.33
2018-12-15T20:34:52.543Z,57.80
2018-12-15T20:37:21.528Z,51.90
2018-12-15T20:39:50.189Z,49.17
2018-12-15T20:42:18.923Z,44.30
2018-12-15T20:44:48.484Z,48.23
2018-12-15T20:47:17.419Z,51.37
2018-12-15T20:49:46.045Z,56.70
2018-12-15T20:52:15.056Z,55.03
2018-12-15T20:54:44.057Z,56.93
2018-12-15T20:57:13.032Z,55.37
2018-12-15T20:59:41.887Z,56.60
2018-12-15T21:02:10.577Z,59.37
2018-12-15T21:04:39.585Z,59.17
2018-12-15T21:07:09.162Z,59.33
2018-12-15T21:09:38.188Z,58.70
2018-12-15T21:12:07.192Z,54.83
2018-12-15T21:14:36.260Z,51.03
2018-12-15T21:17:05.186Z,53.23
2018-12-15T21:19:33.960Z,52.97
2018-12-15T21:22:02.848Z,50.60
2018-12-15T21:24:31.840Z,46.23
2018-12-15T21:27:00.872Z,45.47
2018-12-15T21:29:29.490Z,49.17
2018-12-15T21:31:58.530Z,46.50
2018-12-15T21:34:27.546Z,44.47
2018-12-15T21:36:56.211Z,45.63
2018-12-15T21:39:24.881Z,45.80
2018-12-15T21:41:53.872Z,44.30
2018-12-15T21:44:23.024Z,42.13
2018-12-15T21:46:51.923Z,40.13
2018-12-15T21:49:20.586Z,37.53
2018-12-15T21:51:56.010Z,35.23
2018-12-15T21:54:20.141Z,35.43
2018-12-15T21:56:48.983Z,32.80
2018-12-15T21:59:18.036Z,31.37
2018-12-15T22:01:47.086Z,33.90
2018-12-15T22:04:16.069Z,31.87
2018-12-15T22:06:45.137Z,34.00
2018-12-15T22:09:14.148Z,31.70
2018-12-15T22:11:43.020Z,31.60
2018-12-15T22:14:12.020Z,30.97
2018-12-15T22:16:41.034Z,28.63
2018-12-15T22:19:10.008Z,30.33
2018-12-15T22:21:39.068Z,29.70
2018-12-15T22:24:07.782Z,26.13
2018-12-15T22:26:36.738Z,26.33
2018-12-15T22:29:05.668Z,26.73
2018-12-15T22:31:34.551Z,25.77
2018-12-15T22:34:03.340Z,26.13
2018-12-15T22:36:32.356Z,26.37
2018-12-15T22:39:01.334Z,25.87
2018-12-15T22:41:30.148Z,25.77
2018-12-15T22:43:58.869Z,25.57
2018-12-15T22:46:27.780Z,26.07
2018-12-15T22:48:56.623Z,25.37
2018-12-15T22:51:25.563Z,35.23
2018-12-15T22:53:54.447Z,22.73
2018-12-15T22:56:23.242Z,24.03
2018-12-15T22:58:52.047Z,23.73
2018-12-15T23:01:21.115Z,28.60
2018-12-15T23:03:50.040Z,25.90
2018-12-15T23:06:18.775Z,23.20
2018-12-15T23:08:47.668Z,34.20
2018-12-15T23:11:16.863Z,25.20
2018-12-15T23:13:45.739Z,22.43
2018-12-15T23:16:14.582Z,23.13
2018-12-15T23:18:43.352Z,22.63
2018-12-15T23:21:12.098Z,25.07
2018-12-15T23:23:40.825Z,21.10
2018-12-15T23:26:09.803Z,31.00
2018-12-15T23:28:38.601Z,20.47
2018-12-15T23:31:07.471Z,20.40
2018-12-15T23:33:36.279Z,18.63
2018-12-15T23:36:05.122Z,20.40
2018-12-15T23:38:34.078Z,22.60
2018-12-15T23:41:02.951Z,51.13
2018-12-15T23:43:31.927Z,19.67
2018-12-15T23:46:00.836Z,20.93
2018-12-15T23:48:29.808Z,19.87
2018-12-15T23:50:58.768Z,19.10
2018-12-15T23:53:27.990Z,21.60
2018-12-15T23:55:56.701Z,20.03
2018-12-15T23:58:25.652Z,19.90
